createdAt,value
2023-03-06T00:01:20.336Z,56.25
2023-03-06T00:03:52.779Z,57.15
2023-03-06T00:06:24.403Z,55.35
2023-03-06T00:08:56.037Z,54.55
2023-03-06T00:11:27.790Z,54.49
2023-03-06T00:13:59.359Z,54.22
2023-03-06T00:16:30.973Z,55.36
2023-03-06T00:19:02.640Z,55.06
2023-03-06T00:21:34.264Z,56.17
2023-03-06T00:24:06.054Z,54.87
2023-03-06T00:26:37.668Z,55.72
2023-03-06T00:29:09.376Z,56.45
2023-03-06T00:31:41.960Z,56.12
2023-03-06T00:34:14.418Z,56.88
2023-03-06T00:36:46.106Z,55.75
2023-03-06T00:39:17.794Z,55.17
2023-03-06T00:41:49.407Z,55.39
2023-03-06T00:44:21.164Z,55.38
2023-03-06T00:46:52.819Z,56.27
2023-03-06T00:49:24.457Z,57.11
2023-03-06T00:51:56.058Z,57.38
2023-03-06T00:54:27.661Z,55.88
2023-03-06T00:56:59.363Z,55.39
2023-03-06T00:59:30.998Z,55.79
2023-03-06T01:02:02.980Z,56.10
2023-03-06T01:04:34.860Z,55.67
2023-03-06T01:07:06.481Z,56.02
2023-03-06T01:09:38.387Z,57.14
2023-03-06T01:12:10.197Z,55.91
2023-03-06T01:14:41.909Z,55.91
2023-03-06T01:17:14.519Z,56.73
2023-03-06T01:19:48.031Z,56.74
2023-03-06T01:22:21.347Z,56.47
2023-03-06T01:24:53.607Z,55.57
2023-03-06T01:27:26.285Z,56.37
2023-03-06T01:29:58.012Z,56.66
2023-03-06T01:32:29.887Z,57.03
2023-03-06T01:35:01.637Z,57.16
2023-03-06T01:37:35.555Z,56.90
2023-03-06T01:40:10.708Z,58.90
2023-03-06T01:42:43.177Z,57.94
2023-03-06T01:45:14.793Z,57.30
2023-03-06T01:47:46.748Z,58.36
2023-03-06T01:50:18.567Z,57.46
2023-03-06T01:52:59.523Z,57.35
2023-03-06T01:55:34.942Z,57.30
2023-03-06T01:58:12.646Z,57.24
2023-03-06T02:00:44.554Z,57.08
2023-03-06T02:03:23.370Z,56.80
2023-03-06T02:05:56.130Z,56.26
2023-03-06T02:08:30.009Z,56.84
2023-03-06T02:11:01.736Z,56.83
2023-03-06T02:13:35.193Z,57.26
2023-03-06T02:16:08.551Z,56.39
2023-03-06T02:18:42.732Z,56.62
2023-03-06T02:21:26.795Z,56.78
2023-03-06T02:24:24.686Z,57.07
2023-03-06T02:26:59.042Z,56.43
2023-03-06T02:29:31.777Z,56.76
2023-03-06T02:32:07.262Z,57.10
2023-03-06T02:34:39.276Z,57.31
2023-03-06T02:37:11.434Z,57.03
2023-03-06T02:39:50.104Z,56.62
2023-03-06T02:42:26.387Z,57.17
2023-03-06T02:45:03.282Z,57.36
2023-03-06T02:47:34.958Z,57.33
2023-03-06T02:50:06.939Z,57.62
2023-03-06T02:52:38.500Z,58.24
2023-03-06T02:55:10.639Z,58.36
2023-03-06T02:57:42.489Z,58.76
2023-03-06T03:00:15.372Z,58.32
2023-03-06T03:02:48.278Z,58.14
2023-03-06T03:05:20.736Z,58.32
2023-03-06T03:07:58.873Z,58.46
2023-03-06T03:10:32.453Z,59.10
2023-03-06T03:13:04.450Z,57.71
2023-03-06T03:15:38.328Z,58.71
2023-03-06T03:18:11.448Z,59.53
2023-03-06T03:20:43.097Z,58.25
2023-03-06T03:23:14.786Z,58.82
2023-03-06T03:25:46.445Z,58.45
2023-03-06T03:28:19.389Z,58.68
2023-03-06T03:30:51.586Z,58.80
2023-03-06T03:33:23.234Z,58.97
2023-03-06T03:35:59.903Z,58.26
2023-03-06T03:38:32.253Z,58.48
2023-03-06T03:41:04.849Z,58.09
2023-03-06T03:43:36.733Z,58.17
2023-03-06T03:46:08.625Z,57.80
2023-03-06T03:48:40.497Z,57.22
2023-03-06T03:51:13.954Z,58.03
2023-03-06T03:53:50.392Z,58.79
2023-03-06T03:56:26.054Z,58.85
2023-03-06T03:59:04.179Z,59.17
2023-03-06T04:01:42.521Z,59.46
2023-03-06T04:04:14.231Z,58.75
2023-03-06T04:06:48.187Z,59.25
2023-03-06T04:09:22.759Z,58.05
2023-03-06T04:11:55.097Z,58.58
2023-03-06T04:14:27.165Z,59.11
2023-03-06T04:16:59.267Z,59.49
2023-03-06T04:19:31.035Z,60.27
2023-03-06T04:22:03.273Z,59.17
2023-03-06T04:24:37.037Z,59.33
2023-03-06T04:27:08.753Z,59.96
2023-03-06T04:29:40.359Z,59.53
2023-03-06T04:32:12.117Z,59.16
2023-03-06T04:34:44.590Z,60.01
2023-03-06T04:37:22.261Z,59.07
2023-03-06T04:39:54.734Z,58.94
2023-03-06T04:42:28.517Z,60.38
2023-03-06T04:45:00.985Z,61.29
2023-03-06T04:47:32.661Z,59.69
2023-03-06T04:50:05.396Z,60.56
2023-03-06T04:52:37.208Z,59.33
2023-03-06T04:55:12.230Z,58.62
2023-03-06T04:57:45.935Z,59.38
2023-03-06T05:00:22.248Z,62.08
2023-03-06T05:02:54.142Z,60.05
2023-03-06T05:05:26.604Z,59.38
2023-03-06T05:07:58.445Z,59.48
2023-03-06T05:10:30.168Z,59.83
2023-03-06T05:13:01.957Z,59.24
2023-03-06T05:15:33.637Z,59.58
2023-03-06T05:18:05.431Z,59.94
2023-03-06T05:20:37.112Z,59.93
2023-03-06T05:23:09.160Z,60.92
2023-03-06T05:25:42.213Z,59.78
2023-03-06T05:28:13.882Z,59.78
2023-03-06T05:30:46.146Z,59.56
2023-03-06T05:33:18.359Z,59.67
2023-03-06T05:35:51.107Z,60.59
2023-03-06T05:38:22.826Z,62.12
2023-03-06T05:40:54.768Z,60.59
2023-03-06T05:43:26.488Z,62.03
2023-03-06T05:46:03.777Z,59.86
2023-03-06T05:48:35.838Z,59.87
2023-03-06T05:51:07.836Z,59.50
2023-03-06T05:53:40.181Z,60.54
2023-03-06T05:56:11.941Z,60.28
2023-03-06T05:58:43.770Z,60.06
2023-03-06T06:01:18.888Z,59.71
2023-03-06T06:03:51.091Z,59.77
2023-03-06T06:06:22.973Z,61.22
2023-03-06T06:08:54.688Z,60.39
2023-03-06T06:11:28.360Z,60.69
2023-03-06T06:14:00.392Z,59.42
2023-03-06T06:16:32.292Z,59.84
2023-03-06T06:19:04.178Z,58.96
2023-03-06T06:21:35.957Z,60.65
2023-03-06T06:24:07.608Z,61.64
2023-03-06T06:26:39.755Z,60.76
2023-03-06T06:29:13.384Z,59.73
2023-03-06T06:31:45.364Z,60.01
2023-03-06T06:34:16.996Z,59.66
2023-03-06T06:36:51.622Z,58.95
2023-03-06T06:39:25.227Z,58.87
2023-03-06T06:42:14.712Z,58.67
2023-03-06T06:44:48.594Z,59.13
2023-03-06T06:47:24.037Z,58.80
2023-03-06T06:49:57.285Z,58.51
2023-03-06T06:52:28.904Z,58.57
2023-03-06T06:55:00.569Z,59.67
2023-03-06T06:57:32.270Z,58.91
2023-03-06T07:00:05.749Z,58.69
2023-03-06T07:02:37.364Z,57.35
2023-03-06T07:05:09.641Z,55.88
2023-03-06T07:07:41.588Z,55.23
2023-03-06T07:10:15.615Z,55.44
2023-03-06T07:12:47.364Z,55.73
2023-03-06T07:15:19.056Z,54.62
2023-03-06T07:17:50.770Z,54.46
2023-03-06T07:20:22.779Z,53.80
2023-03-06T07:22:54.505Z,55.25
2023-03-06T07:25:26.151Z,54.72
2023-03-06T07:27:58.036Z,55.21
2023-03-06T07:30:30.572Z,56.48
2023-03-06T07:33:02.433Z,55.44
2023-03-06T07:35:34.128Z,57.01
2023-03-06T07:38:05.859Z,56.18
2023-03-06T07:40:38.319Z,56.67
2023-03-06T07:43:19.022Z,56.93
2023-03-06T07:46:00.032Z,58.19
2023-03-06T07:48:31.828Z,57.37
2023-03-06T07:51:12.899Z,56.76
2023-03-06T07:53:44.848Z,56.30
2023-03-06T07:56:18.018Z,55.88
2023-03-06T07:58:50.649Z,55.42
2023-03-06T08:01:22.548Z,57.72
2023-03-06T08:03:54.516Z,55.44
2023-03-06T08:06:27.868Z,54.57
2023-03-06T08:09:00.457Z,53.98
2023-03-06T08:11:32.226Z,52.98
2023-03-06T08:14:03.991Z,52.90
2023-03-06T08:16:35.950Z,50.75
2023-03-06T08:19:08.016Z,49.13
2023-03-06T08:21:42.378Z,48.48
2023-03-06T08:24:14.109Z,47.30
2023-03-06T08:26:46.432Z,45.35
2023-03-06T08:29:18.184Z,43.29
2023-03-06T08:31:50.169Z,42.11
2023-03-06T08:34:26.747Z,39.75
2023-03-06T08:36:58.489Z,40.11
2023-03-06T08:39:30.250Z,36.60
2023-03-06T08:42:02.140Z,33.54
2023-03-06T08:44:35.257Z,33.44
2023-03-06T08:47:07.292Z,32.46
2023-03-06T08:49:39.256Z,31.84
2023-03-06T08:52:11.692Z,33.34
2023-03-06T08:54:43.537Z,34.46
2023-03-06T08:57:15.306Z,33.50
2023-03-06T08:59:46.996Z,33.36
2023-03-06T09:02:18.750Z,36.87
2023-03-06T09:04:50.808Z,39.81
2023-03-06T09:07:22.529Z,33.56
2023-03-06T09:09:57.972Z,30.76
2023-03-06T09:12:32.667Z,29.03
2023-03-06T09:15:09.678Z,29.10
2023-03-06T09:17:41.722Z,30.28
2023-03-06T09:20:16.283Z,29.62
2023-03-06T09:22:48.455Z,28.88
2023-03-06T09:25:20.285Z,28.73
2023-03-06T09:28:08.636Z,31.45
2023-03-06T09:30:42.886Z,34.32
2023-03-06T09:33:15.345Z,34.24
2023-03-06T09:35:52.143Z,39.12
2023-03-06T09:38:26.978Z,37.38
2023-03-06T09:40:58.593Z,33.88
2023-03-06T09:43:42.733Z,34.69
2023-03-06T09:46:44.905Z,37.89
2023-03-06T09:49:35.306Z,33.71
2023-03-06T09:52:34.209Z,32.74
2023-03-06T09:55:25.583Z,33.81
2023-03-06T09:58:13.931Z,34.98
2023-03-06T10:01:02.829Z,33.08
2023-03-06T10:03:45.167Z,34.24
2023-03-06T10:06:37.165Z,36.11
2023-03-06T10:09:35.487Z,35.48
2023-03-06T10:12:16.767Z,37.24
2023-03-06T10:14:57.886Z,40.06
2023-03-06T10:17:36.090Z,41.47
2023-03-06T10:21:00.931Z,36.57
2023-03-06T10:23:54.444Z,39.33
2023-03-06T10:26:36.629Z,39.15
2023-03-06T10:29:40.165Z,40.78
2023-03-06T10:32:30.546Z,42.31
2023-03-06T10:35:19.093Z,44.27
2023-03-06T10:37:51.289Z,45.27
2023-03-06T10:40:34.612Z,45.92
2023-03-06T10:43:12.528Z,47.36
2023-03-06T10:45:49.989Z,45.63
2023-03-06T10:48:26.064Z,45.46
2023-03-06T10:51:18.519Z,47.34
2023-03-06T10:54:03.521Z,44.57
2023-03-06T10:56:38.785Z,44.31
2023-03-06T10:59:18.155Z,44.56
2023-03-06T11:01:54.575Z,45.76
2023-03-06T11:04:36.370Z,45.79
2023-03-06T11:07:22.814Z,46.73
2023-03-06T11:09:57.576Z,44.29
2023-03-06T11:12:33.633Z,44.34
2023-03-06T11:15:15.557Z,41.85
2023-03-06T11:18:00.849Z,44.89
2023-03-06T11:20:51.615Z,45.79
2023-03-06T11:23:29.978Z,45.12
2023-03-06T11:26:16.923Z,44.70
2023-03-06T11:28:57.337Z,47.45
2023-03-06T11:31:34.831Z,43.10
2023-03-06T11:34:18.184Z,42.11
2023-03-06T11:37:00.369Z,43.01
2023-03-06T11:39:39.564Z,43.23
2023-03-06T11:46:02.030Z,44.72
2023-03-06T11:48:54.321Z,45.93
2023-03-06T11:51:33.188Z,45.79
2023-03-06T11:54:04.892Z,45.74
2023-03-06T11:56:45.399Z,44.72
2023-03-06T11:59:25.890Z,43.75
2023-03-06T12:02:00.529Z,43.16
2023-03-06T12:05:06.654Z,40.74
2023-03-06T12:07:55.946Z,41.02
2023-03-06T12:10:52.460Z,40.97
2023-03-06T12:13:36.593Z,43.03
2023-03-06T12:16:30.060Z,43.69
2023-03-06T12:19:23.618Z,43.48
2023-03-06T12:22:31.292Z,45.76
2023-03-06T12:25:28.111Z,44.07
2023-03-06T12:28:19.960Z,44.31
2023-03-06T12:31:07.712Z,44.39
2023-03-06T12:33:53.354Z,46.53
2023-03-06T12:36:51.445Z,48.67
2023-03-06T12:39:35.260Z,48.28
2023-03-06T12:42:23.072Z,46.81
2023-03-06T12:45:01.160Z,48.82
2023-03-06T12:47:42.288Z,49.10
2023-03-06T12:50:23.975Z,50.44
2023-03-06T12:53:02.250Z,47.55
2023-03-06T12:55:50.553Z,47.52
2023-03-06T12:58:28.150Z,48.02
2023-03-06T13:01:04.544Z,47.23
2023-03-06T13:04:11.375Z,45.78
2023-03-06T13:06:58.245Z,46.84
2023-03-06T13:09:35.978Z,48.18
2023-03-06T13:12:39.956Z,47.40
2023-03-06T13:15:46.398Z,47.60
2023-03-06T13:18:23.761Z,47.24
2023-03-06T13:20:56.661Z,48.27
2023-03-06T13:23:34.302Z,49.11
2023-03-06T13:26:08.641Z,49.08
2023-03-06T13:28:44.194Z,46.00
2023-03-06T13:31:29.393Z,47.08
2023-03-06T13:34:24.029Z,48.43
2023-03-06T13:37:18.092Z,47.41
2023-03-06T13:39:55.810Z,47.61
2023-03-06T13:42:37.121Z,46.66
2023-03-06T13:45:16.883Z,47.68
2023-03-06T13:48:15.568Z,46.07
2023-03-06T13:50:46.899Z,47.10
2023-03-06T13:53:49.283Z,46.05
2023-03-06T13:56:53.482Z,46.79
2023-03-06T13:59:54.393Z,46.46
2023-03-06T14:02:47.385Z,47.60
2023-03-06T14:05:20.107Z,46.57
2023-03-06T14:08:30.304Z,45.88
2023-03-06T14:11:05.879Z,45.07
2023-03-06T14:13:49.434Z,45.73
2023-03-06T14:16:32.675Z,45.41
2023-03-06T14:19:18.666Z,45.24
2023-03-06T14:21:57.845Z,45.71
2023-03-06T14:24:41.422Z,44.63
2023-03-06T14:27:19.243Z,45.74
2023-03-06T14:29:51.023Z,43.85
2023-03-06T14:32:24.171Z,45.68
2023-03-06T14:34:56.604Z,44.42
2023-03-06T14:37:28.402Z,46.32
2023-03-06T14:40:00.177Z,48.57
2023-03-06T14:42:31.908Z,48.06
2023-03-06T14:45:19.101Z,47.57
2023-03-06T14:47:52.883Z,47.81
2023-03-06T14:50:25.906Z,46.53
2023-03-06T14:53:15.791Z,42.01
2023-03-06T14:55:57.061Z,41.86
2023-03-06T14:58:44.725Z,39.87
2023-03-06T15:01:26.489Z,40.51
2023-03-06T15:04:00.922Z,38.71
2023-03-06T15:06:39.845Z,37.04
2023-03-06T15:09:20.483Z,39.62
2023-03-06T15:11:55.210Z,39.61
2023-03-06T15:14:39.981Z,34.46
2023-03-06T15:17:15.782Z,31.86
2023-03-06T15:19:49.965Z,32.54
2023-03-06T15:22:26.736Z,27.33
2023-03-06T15:25:24.804Z,26.80
2023-03-06T15:28:00.139Z,25.15
2023-03-06T15:30:36.922Z,25.50
2023-03-06T15:33:26.589Z,26.71
2023-03-06T15:36:02.386Z,24.20
2023-03-06T15:38:41.701Z,27.13
2023-03-06T15:41:27.750Z,27.72
2023-03-06T15:44:02.630Z,28.03
2023-03-06T15:46:35.072Z,28.98
2023-03-06T15:49:16.524Z,31.31
2023-03-06T15:51:48.144Z,31.90
2023-03-06T15:54:19.984Z,31.20
2023-03-06T15:56:51.643Z,31.56
2023-03-06T15:59:28.392Z,36.45
2023-03-06T16:02:13.787Z,35.79
2023-03-06T16:04:46.319Z,32.59
2023-03-06T16:07:23.716Z,31.16
2023-03-06T16:09:55.566Z,31.48
2023-03-06T16:12:30.274Z,32.97
2023-03-06T16:15:02.121Z,31.54
2023-03-06T16:17:36.926Z,32.82
2023-03-06T16:20:14.973Z,32.34
2023-03-06T16:22:49.227Z,32.81
2023-03-06T16:25:24.372Z,32.86
2023-03-06T16:27:59.143Z,33.19
2023-03-06T16:30:33.390Z,32.70
2023-03-06T16:33:05.525Z,34.50
2023-03-06T16:35:37.204Z,34.01
2023-03-06T16:38:10.591Z,33.75
2023-03-06T16:40:43.288Z,33.54
2023-03-06T16:43:16.285Z,35.02
2023-03-06T16:45:47.946Z,34.83
2023-03-06T16:48:19.574Z,35.86
2023-03-06T16:50:51.175Z,36.70
2023-03-06T16:53:22.872Z,36.62
2023-03-06T16:55:54.532Z,37.83
2023-03-06T16:58:26.142Z,37.74
2023-03-06T17:00:57.795Z,38.44
2023-03-06T17:03:29.430Z,39.02
2023-03-06T17:06:04.123Z,39.39
2023-03-06T17:08:35.765Z,39.57
2023-03-06T17:11:07.841Z,39.50
2023-03-06T17:13:39.956Z,40.59
2023-03-06T17:16:13.701Z,40.20
2023-03-06T17:18:46.056Z,40.96
2023-03-06T17:21:17.649Z,41.05
2023-03-06T17:23:49.250Z,41.06
2023-03-06T17:26:20.945Z,41.62
2023-03-06T17:28:52.694Z,42.66
2023-03-06T17:31:27.148Z,42.59
2023-03-06T17:33:58.788Z,42.42
2023-03-06T17:36:31.526Z,42.06
2023-03-06T17:39:03.665Z,41.92
2023-03-06T17:41:35.484Z,40.86
2023-03-06T17:44:07.121Z,40.83
2023-03-06T17:46:38.793Z,40.35
2023-03-06T17:49:10.524Z,39.87
2023-03-06T17:51:42.250Z,40.45
2023-03-06T17:54:13.898Z,37.95
2023-03-06T17:56:45.577Z,38.33
2023-03-06T17:59:17.166Z,37.83
2023-03-06T18:02:11.046Z,38.86
2023-03-06T18:04:43.021Z,38.63
2023-03-06T18:07:14.779Z,38.41
2023-03-06T18:09:46.500Z,38.28
2023-03-06T18:12:18.132Z,38.27
2023-03-06T18:14:49.725Z,39.03
2023-03-06T18:17:21.571Z,39.60
2023-03-06T18:19:53.235Z,38.89
2023-03-06T18:22:24.967Z,39.28
2023-03-06T18:24:56.631Z,40.29
2023-03-06T18:27:28.351Z,39.51
2023-03-06T18:30:00.200Z,39.47
2023-03-06T18:32:31.975Z,39.23
2023-03-06T18:35:04.141Z,40.57
2023-03-06T18:37:35.902Z,41.90
2023-03-06T18:40:08.852Z,40.72
2023-03-06T18:42:40.741Z,41.17
2023-03-06T18:45:12.522Z,40.66
2023-03-06T18:47:44.413Z,40.40
2023-03-06T18:50:16.262Z,40.11
2023-03-06T18:52:47.890Z,39.44
2023-03-06T18:55:19.539Z,40.25
2023-03-06T18:57:51.279Z,41.05
2023-03-06T19:00:23.400Z,39.97
2023-03-06T19:02:55.804Z,40.17
2023-03-06T19:05:28.204Z,40.36
2023-03-06T19:08:00.336Z,41.50
2023-03-06T19:10:39.808Z,40.88
2023-03-06T19:13:12.282Z,41.60
2023-03-06T19:15:49.179Z,41.26
2023-03-06T19:18:20.972Z,41.68
2023-03-06T19:20:52.733Z,42.18
2023-03-06T19:23:24.656Z,42.71
2023-03-06T19:25:57.421Z,44.24
2023-03-06T19:28:30.220Z,44.02
2023-03-06T19:31:28.414Z,44.98
2023-03-06T19:34:00.442Z,45.04
2023-03-06T19:36:33.907Z,45.51
2023-03-06T19:39:08.206Z,45.43
2023-03-06T19:41:40.700Z,44.08
2023-03-06T19:44:12.672Z,44.99
2023-03-06T19:46:44.342Z,43.44
2023-03-06T19:49:16.773Z,43.64
2023-03-06T19:51:48.495Z,43.58
2023-03-06T19:54:20.219Z,43.00
2023-03-06T19:56:51.938Z,43.73
2023-03-06T19:59:23.852Z,42.73
2023-03-06T20:01:55.661Z,42.10
2023-03-06T20:04:30.648Z,42.68
2023-03-06T20:07:02.421Z,42.30
2023-03-06T20:09:34.069Z,42.69
2023-03-06T20:12:08.147Z,44.21
2023-03-06T20:14:40.567Z,43.17
2023-03-06T20:17:12.225Z,44.16
2023-03-06T20:19:44.173Z,44.10
2023-03-06T20:22:15.796Z,42.64
2023-03-06T20:24:47.437Z,43.62
2023-03-06T20:27:19.312Z,43.79
2023-03-06T20:29:51.047Z,44.13
2023-03-06T20:32:22.632Z,43.87
2023-03-06T20:34:54.257Z,43.31
2023-03-06T20:37:25.974Z,43.23
2023-03-06T20:39:57.572Z,43.32
2023-03-06T20:42:29.134Z,43.32
2023-03-06T20:45:00.808Z,44.16
2023-03-06T20:47:32.453Z,44.46
2023-03-06T20:50:04.452Z,44.86
2023-03-06T20:52:36.102Z,46.00
2023-03-06T20:55:08.126Z,46.03
2023-03-06T20:57:40.030Z,45.83
2023-03-06T21:00:12.093Z,44.99
2023-03-06T21:02:43.766Z,44.41
2023-03-06T21:05:15.509Z,44.51
2023-03-06T21:07:47.888Z,44.08
2023-03-06T21:10:19.441Z,43.84
2023-03-06T21:12:51.150Z,44.96
2023-03-06T21:15:22.790Z,45.17
2023-03-06T21:17:54.458Z,44.95
2023-03-06T21:20:26.166Z,44.70
2023-03-06T21:22:57.827Z,43.83
2023-03-06T21:25:29.751Z,44.19
2023-03-06T21:28:01.494Z,44.26
2023-03-06T21:30:34.362Z,44.66
2023-03-06T21:33:05.932Z,44.45
2023-03-06T21:35:41.690Z,45.86
2023-03-06T21:38:13.916Z,45.29
2023-03-06T21:40:45.982Z,44.90
2023-03-06T21:43:17.790Z,45.77
2023-03-06T21:45:49.845Z,44.44
2023-03-06T21:48:21.725Z,45.67
2023-03-06T21:51:02.536Z,45.41
2023-03-06T21:53:34.643Z,45.73
2023-03-06T21:56:06.706Z,46.25
2023-03-06T21:58:39.443Z,46.70
2023-03-06T22:01:17.659Z,47.35
2023-03-06T22:03:49.366Z,47.27
2023-03-06T22:06:24.398Z,46.07
2023-03-06T22:08:58.018Z,46.32
2023-03-06T22:11:30.266Z,46.27
2023-03-06T22:14:01.855Z,47.71
2023-03-06T22:16:33.684Z,48.38
2023-03-06T22:19:08.388Z,46.64
2023-03-06T22:21:39.925Z,46.44
2023-03-06T22:24:11.558Z,46.61
2023-03-06T22:26:43.228Z,47.46
2023-03-06T22:29:14.850Z,48.09
2023-03-06T22:31:46.558Z,47.63
2023-03-06T22:34:18.434Z,49.43
2023-03-06T22:36:49.977Z,48.49
2023-03-06T22:39:21.605Z,48.22
2023-03-06T22:41:56.956Z,49.19
2023-03-06T22:44:28.728Z,48.60
2023-03-06T22:47:00.309Z,48.28
2023-03-06T22:49:32.146Z,49.33
2023-03-06T22:52:03.858Z,48.20
2023-03-06T22:54:35.652Z,48.20
2023-03-06T22:57:07.268Z,48.07
2023-03-06T22:59:39.077Z,47.17
2023-03-06T23:02:10.645Z,45.50
2023-03-06T23:04:42.371Z,44.50
2023-03-06T23:07:14.190Z,46.14
2023-03-06T23:09:46.110Z,45.04
2023-03-06T23:12:36.084Z,46.61
2023-03-06T23:15:26.301Z,47.29
2023-03-06T23:18:16.606Z,46.61
2023-03-06T23:21:12.466Z,48.30
2023-03-06T23:24:02.848Z,46.99
2023-03-06T23:26:34.996Z,46.80
2023-03-06T23:29:06.584Z,47.43
2023-03-06T23:31:38.192Z,48.04
2023-03-06T23:34:09.901Z,48.83
2023-03-06T23:36:41.499Z,48.88
2023-03-06T23:39:13.244Z,49.52
2023-03-06T23:41:44.930Z,49.79
2023-03-06T23:44:16.553Z,49.97
2023-03-06T23:46:48.107Z,49.84
2023-03-06T23:49:21.874Z,48.39
2023-03-06T23:51:53.673Z,48.77
2023-03-06T23:54:25.370Z,49.86
2023-03-06T23:56:56.995Z,49.23
2023-03-06T23:59:28.696Z,49.74
